Airfield :
LOGIN :

Register | Disclaimer

   EN    FR    IT 

 










Legend :    VFR   Marginal VFR   IFR   Intensive IFR   Very Intensive IFR
Visi :
Ceiling :
>= 8 km
>= 3000ft
5 to 8 km
1000 to 3000 ft
1500m to 5 km
500 to 1000 ft
800 to 1500m
200 to 500 ft
< 800m
< 200 ft
Symbols :   Thunderstorms  Fog  Heavy snow  Heavy precipitations  Wind > 20 kt
SIGMETs :     Misc.  Thunderstorms  Icing  Turbulence  Mountain Waves  Volcanic Ashes







- Airport Elevation : 20 ft


EBFN - Koksijde

CURRENT METAR :
  • 190655Z 12006KT 5000 BR SCT120 BKN250 12/11 Q1008 WHT WHT BECMG BLU

EXPIRED METARs :
  • 190625Z 10003KT 4000 BR SCT120 BKN250 11/11 Q1008 GRN GRN BECMG WHT
  • 190555Z VRB02KT 3200 BR SCT120 BKN250 09/09 Q1009 YLO YLO BECMG AMB
  • 190525Z 10003KT 2000 BR SCT120 BKN250 10/10 Q1009 YLO YLO BECMG AMB
  • 190455Z 09003KT 2000 BR SCT120 BKN250 09/09 Q1009 YLO YLO BECMG AMB
  • 190425Z VRB02KT 2000 BR FEW120 BKN250 10/10 Q1009 YLO YLO BECMG AMB
  • 190424Z VRB02KT 2000 BR FEW120 BKN250 10/10 Q1009 YLO YLO BECMG AMB
  • 190355Z VRB02KT 2500 BR BKN250 10/10 Q1009 YLO

TAF TAF EBFN
Valid from the 19 at 07:00 until the 19 at 16:00 UTC


190541Z 1907/1916 14008KT 5000 BR BKN135
TEMPO 1907/1909 3000 BR SCT005
PROB40
TEMPO 1907/1909 1000 FG BKN002
BECMG 1908/1910 15011KT 8000 BKN095
TEMPO 1914/1916 19014KT 5000 -RA -SHRA BKN030
PROB40
TEMPO 1915/1916 19014G25KT 4000 RA SHRA BKN024TCU
No reported NOTAMs for that airfield.



MET'MAP, your aeronautical weather chart ! - Copyright ORBIFLY December 2007 - Disclaimer

ORBIFLY MET'MAP TEAM :

Programming & Development : Alexandra Zaïnal
Concept & Development : Baudouin d'Aumeries
Co-Development & Prog : Marc-Olivier Méhu
Technical & hardware support : Manuel Goepfert

Contact : metmap@orbifly.com




SOURCES & CREDITS :

   NOAA